sensor_id;sensor_type;location;lat;lon;timestamp;P1;durP1;ratioP1;P2;durP2;ratioP2
16179;SDS011;8196;49.428;10.906;2022-10-16T00:02:15;2.40;;;1.30;;
16179;SDS011;8196;49.428;10.906;2022-10-16T00:04:43;2.67;;;1.35;;
16179;SDS011;8196;49.428;10.906;2022-10-16T00:07:10;2.33;;;1.27;;
16179;SDS011;8196;49.428;10.906;2022-10-16T00:09:37;2.10;;;1.40;;
16179;SDS011;8196;49.428;10.906;2022-10-16T00:12:04;4.07;;;1.27;;
16179;SDS011;8196;49.428;10.906;2022-10-16T00:14:33;2.92;;;1.30;;
16179;SDS011;8196;49.428;10.906;2022-10-16T00:17:00;3.97;;;1.52;;
16179;SDS011;8196;49.428;10.906;2022-10-16T00:19:27;2.00;;;1.40;;
16179;SDS011;8196;49.428;10.906;2022-10-16T00:21:54;1.88;;;1.20;;
16179;SDS011;8196;49.428;10.906;2022-10-16T00:24:21;4.05;;;1.30;;
16179;SDS011;8196;49.428;10.906;2022-10-16T00:26:49;1.70;;;1.40;;
16179;SDS011;8196;49.428;10.906;2022-10-16T00:29:17;1.67;;;1.30;;
16179;SDS011;8196;49.428;10.906;2022-10-16T00:31:44;2.83;;;1.52;;
16179;SDS011;8196;49.428;10.906;2022-10-16T00:34:11;3.70;;;1.60;;
16179;SDS011;8196;49.428;10.906;2022-10-16T00:36:38;4.10;;;1.70;;
16179;SDS011;8196;49.428;10.906;2022-10-16T00:39:05;1.98;;;1.70;;
16179;SDS011;8196;49.428;10.906;2022-10-16T00:41:33;4.00;;;1.88;;
16179;SDS011;8196;49.428;10.906;2022-10-16T00:44:01;2.33;;;1.70;;
16179;SDS011;8196;49.428;10.906;2022-10-16T00:46:44;3.40;;;1.83;;
16179;SDS011;8196;49.428;10.906;2022-10-16T00:49:13;4.75;;;1.50;;
16179;SDS011;8196;49.428;10.906;2022-10-16T00:51:43;3.38;;;1.42;;
16179;SDS011;8196;49.428;10.906;2022-10-16T00:54:13;4.75;;;1.50;;
16179;SDS011;8196;49.428;10.906;2022-10-16T00:56:41;4.03;;;1.43;;
16179;SDS011;8196;49.428;10.906;2022-10-16T00:59:11;5.57;;;1.88;;
16179;SDS011;8196;49.428;10.906;2022-10-16T01:01:40;2.85;;;1.80;;
16179;SDS011;8196;49.428;10.906;2022-10-16T01:04:08;2.28;;;1.40;;
16179;SDS011;8196;49.428;10.906;2022-10-16T01:06:38;3.30;;;1.40;;
16179;SDS011;8196;49.428;10.906;2022-10-16T01:09:27;3.30;;;1.40;;
16179;SDS011;8196;49.428;10.906;2022-10-16T01:12:14;2.50;;;1.20;;
16179;SDS011;8196;49.428;10.906;2022-10-16T01:14:45;1.70;;;1.27;;
16179;SDS011;8196;49.428;10.906;2022-10-16T01:17:15;2.55;;;1.58;;
16179;SDS011;8196;49.428;10.906;2022-10-16T01:22:11;1.70;;;1.30;;
16179;SDS011;8196;49.428;10.906;2022-10-16T01:24:40;1.75;;;1.52;;
16179;SDS011;8196;49.428;10.906;2022-10-16T01:29:48;2.65;;;1.30;;
16179;SDS011;8196;49.428;10.906;2022-10-16T01:32:20;5.43;;;1.77;;
16179;SDS011;8196;49.428;10.906;2022-10-16T01:34:50;2.95;;;1.40;;
16179;SDS011;8196;49.428;10.906;2022-10-16T01:37:22;1.85;;;1.17;;
16179;SDS011;8196;49.428;10.906;2022-10-16T01:39:50;1.70;;;1.52;;
16179;SDS011;8196;49.428;10.906;2022-10-16T01:42:19;1.80;;;1.60;;
16179;SDS011;8196;49.428;10.906;2022-10-16T01:44:48;1.80;;;1.30;;
16179;SDS011;8196;49.428;10.906;2022-10-16T01:47:16;1.50;;;1.30;;
16179;SDS011;8196;49.428;10.906;2022-10-16T01:49:43;3.30;;;1.70;;
16179;SDS011;8196;49.428;10.906;2022-10-16T01:52:13;2.65;;;1.42;;
16179;SDS011;8196;49.428;10.906;2022-10-16T01:54:45;2.47;;;1.77;;
16179;SDS011;8196;49.428;10.906;2022-10-16T01:57:13;4.85;;;1.67;;
16179;SDS011;8196;49.428;10.906;2022-10-16T01:59:45;2.40;;;1.80;;
16179;SDS011;8196;49.428;10.906;2022-10-16T02:02:13;3.40;;;1.65;;
16179;SDS011;8196;49.428;10.906;2022-10-16T02:04:44;3.22;;;1.70;;
16179;SDS011;8196;49.428;10.906;2022-10-16T02:07:12;2.03;;;1.48;;
16179;SDS011;8196;49.428;10.906;2022-10-16T02:09:40;3.65;;;1.60;;
16179;SDS011;8196;49.428;10.906;2022-10-16T02:12:10;4.07;;;1.67;;
16179;SDS011;8196;49.428;10.906;2022-10-16T02:14:38;3.17;;;1.70;;
16179;SDS011;8196;49.428;10.906;2022-10-16T02:17:14;2.38;;;1.70;;
16179;SDS011;8196;49.428;10.906;2022-10-16T02:19:42;3.88;;;2.08;;
16179;SDS011;8196;49.428;10.906;2022-10-16T02:22:12;2.33;;;2.05;;
16179;SDS011;8196;49.428;10.906;2022-10-16T02:24:43;3.20;;;1.90;;
16179;SDS011;8196;49.428;10.906;2022-10-16T02:30:19;2.70;;;2.10;;
16179;SDS011;8196;49.428;10.906;2022-10-16T02:32:48;2.47;;;1.90;;
16179;SDS011;8196;49.428;10.906;2022-10-16T02:35:16;2.58;;;1.55;;
16179;SDS011;8196;49.428;10.906;2022-10-16T02:37:44;3.13;;;1.75;;
16179;SDS011;8196;49.428;10.906;2022-10-16T02:40:11;1.90;;;1.60;;
16179;SDS011;8196;49.428;10.906;2022-10-16T02:42:39;4.25;;;1.70;;
16179;SDS011;8196;49.428;10.906;2022-10-16T02:45:08;2.10;;;1.60;;
16179;SDS011;8196;49.428;10.906;2022-10-16T02:47:36;3.00;;;1.80;;
16179;SDS011;8196;49.428;10.906;2022-10-16T02:52:30;3.57;;;1.60;;
16179;SDS011;8196;49.428;10.906;2022-10-16T02:54:57;4.93;;;1.80;;
16179;SDS011;8196;49.428;10.906;2022-10-16T02:57:24;2.10;;;1.60;;
16179;SDS011;8196;49.428;10.906;2022-10-16T02:59:52;4.95;;;1.65;;
16179;SDS011;8196;49.428;10.906;2022-10-16T03:02:19;7.43;;;1.92;;
16179;SDS011;8196;49.428;10.906;2022-10-16T03:04:46;3.40;;;1.60;;
16179;SDS011;8196;49.428;10.906;2022-10-16T03:07:13;1.85;;;1.48;;
16179;SDS011;8196;49.428;10.906;2022-10-16T03:09:40;2.80;;;1.50;;
16179;SDS011;8196;49.428;10.906;2022-10-16T03:12:08;3.90;;;1.50;;
16179;SDS011;8196;49.428;10.906;2022-10-16T03:14:35;2.63;;;1.80;;
16179;SDS011;8196;49.428;10.906;2022-10-16T03:17:02;3.13;;;1.40;;
16179;SDS011;8196;49.428;10.906;2022-10-16T03:19:29;4.70;;;1.60;;
16179;SDS011;8196;49.428;10.906;2022-10-16T03:21:56;2.40;;;1.75;;
16179;SDS011;8196;49.428;10.906;2022-10-16T03:24:23;3.67;;;3.33;;
16179;SDS011;8196;49.428;10.906;2022-10-16T03:26:50;6.63;;;3.92;;
16179;SDS011;8196;49.428;10.906;2022-10-16T03:29:17;2.90;;;2.25;;
16179;SDS011;8196;49.428;10.906;2022-10-16T03:31:44;3.22;;;2.00;;
16179;SDS011;8196;49.428;10.906;2022-10-16T03:34:11;3.30;;;2.30;;
16179;SDS011;8196;49.428;10.906;2022-10-16T03:36:39;2.50;;;1.65;;
16179;SDS011;8196;49.428;10.906;2022-10-16T03:39:06;4.47;;;1.70;;
16179;SDS011;8196;49.428;10.906;2022-10-16T03:41:33;2.33;;;1.65;;
16179;SDS011;8196;49.428;10.906;2022-10-16T03:44:00;2.20;;;1.60;;
16179;SDS011;8196;49.428;10.906;2022-10-16T03:46:27;2.10;;;1.73;;
16179;SDS011;8196;49.428;10.906;2022-10-16T03:48:54;2.63;;;1.70;;
16179;SDS011;8196;49.428;10.906;2022-10-16T03:51:21;2.10;;;1.85;;
16179;SDS011;8196;49.428;10.906;2022-10-16T03:53:48;3.88;;;1.70;;
16179;SDS011;8196;49.428;10.906;2022-10-16T03:56:16;2.33;;;1.60;;
16179;SDS011;8196;49.428;10.906;2022-10-16T03:58:44;1.97;;;1.77;;
16179;SDS011;8196;49.428;10.906;2022-10-16T04:01:11;2.20;;;1.70;;
16179;SDS011;8196;49.428;10.906;2022-10-16T04:03:38;2.03;;;1.77;;
16179;SDS011;8196;49.428;10.906;2022-10-16T04:06:05;2.37;;;1.67;;
16179;SDS011;8196;49.428;10.906;2022-10-16T04:08:32;2.78;;;1.70;;
16179;SDS011;8196;49.428;10.906;2022-10-16T04:11:01;3.08;;;1.80;;
16179;SDS011;8196;49.428;10.906;2022-10-16T04:13:28;2.22;;;1.52;;
16179;SDS011;8196;49.428;10.906;2022-10-16T04:15:55;2.15;;;1.70;;
16179;SDS011;8196;49.428;10.906;2022-10-16T04:18:22;2.20;;;1.83;;
16179;SDS011;8196;49.428;10.906;2022-10-16T04:20:49;3.03;;;1.63;;
16179;SDS011;8196;49.428;10.906;2022-10-16T04:23:16;1.88;;;1.60;;
16179;SDS011;8196;49.428;10.906;2022-10-16T04:25:43;2.67;;;1.50;;
16179;SDS011;8196;49.428;10.906;2022-10-16T04:28:10;3.40;;;1.83;;
16179;SDS011;8196;49.428;10.906;2022-10-16T04:30:38;4.35;;;1.90;;
16179;SDS011;8196;49.428;10.906;2022-10-16T04:33:05;2.80;;;1.40;;
16179;SDS011;8196;49.428;10.906;2022-10-16T04:35:32;3.00;;;1.80;;
16179;SDS011;8196;49.428;10.906;2022-10-16T04:37:59;2.10;;;1.65;;
16179;SDS011;8196;49.428;10.906;2022-10-16T04:40:26;1.75;;;1.58;;
16179;SDS011;8196;49.428;10.906;2022-10-16T04:42:54;1.65;;;1.48;;
16179;SDS011;8196;49.428;10.906;2022-10-16T04:45:21;2.67;;;1.65;;
16179;SDS011;8196;49.428;10.906;2022-10-16T04:47:48;2.17;;;1.65;;
16179;SDS011;8196;49.428;10.906;2022-10-16T04:50:15;2.70;;;1.73;;
16179;SDS011;8196;49.428;10.906;2022-10-16T04:52:42;2.03;;;1.70;;
16179;SDS011;8196;49.428;10.906;2022-10-16T04:55:09;2.53;;;1.52;;
16179;SDS011;8196;49.428;10.906;2022-10-16T04:57:36;2.60;;;1.37;;
16179;SDS011;8196;49.428;10.906;2022-10-16T05:00:03;1.65;;;1.30;;
16179;SDS011;8196;49.428;10.906;2022-10-16T05:02:31;4.00;;;1.60;;
16179;SDS011;8196;49.428;10.906;2022-10-16T05:04:58;1.80;;;1.50;;
16179;SDS011;8196;49.428;10.906;2022-10-16T05:07:25;3.30;;;1.80;;
16179;SDS011;8196;49.428;10.906;2022-10-16T05:09:52;2.90;;;1.67;;
16179;SDS011;8196;49.428;10.906;2022-10-16T05:12:19;2.20;;;2.00;;
16179;SDS011;8196;49.428;10.906;2022-10-16T05:14:47;2.60;;;1.95;;
16179;SDS011;8196;49.428;10.906;2022-10-16T05:17:14;2.85;;;2.42;;
16179;SDS011;8196;49.428;10.906;2022-10-16T05:19:41;5.30;;;2.38;;
16179;SDS011;8196;49.428;10.906;2022-10-16T05:22:08;2.75;;;2.40;;
16179;SDS011;8196;49.428;10.906;2022-10-16T05:24:35;2.45;;;2.22;;
16179;SDS011;8196;49.428;10.906;2022-10-16T05:27:02;5.60;;;2.08;;
16179;SDS011;8196;49.428;10.906;2022-10-16T05:29:29;2.20;;;2.00;;
16179;SDS011;8196;49.428;10.906;2022-10-16T05:31:56;3.20;;;1.95;;
16179;SDS011;8196;49.428;10.906;2022-10-16T05:34:23;4.30;;;1.92;;
16179;SDS011;8196;49.428;10.906;2022-10-16T05:36:50;3.90;;;1.70;;
16179;SDS011;8196;49.428;10.906;2022-10-16T05:39:17;2.20;;;1.92;;
16179;SDS011;8196;49.428;10.906;2022-10-16T05:41:45;3.10;;;1.90;;
16179;SDS011;8196;49.428;10.906;2022-10-16T05:44:12;4.47;;;1.90;;
16179;SDS011;8196;49.428;10.906;2022-10-16T05:46:39;1.90;;;1.55;;
16179;SDS011;8196;49.428;10.906;2022-10-16T05:49:06;2.67;;;1.88;;
16179;SDS011;8196;49.428;10.906;2022-10-16T05:51:33;2.78;;;1.60;;
16179;SDS011;8196;49.428;10.906;2022-10-16T05:54:00;1.90;;;1.60;;
16179;SDS011;8196;49.428;10.906;2022-10-16T05:56:27;2.20;;;1.70;;
16179;SDS011;8196;49.428;10.906;2022-10-16T05:58:54;3.05;;;2.40;;
16179;SDS011;8196;49.428;10.906;2022-10-16T06:01:21;4.88;;;2.22;;
16179;SDS011;8196;49.428;10.906;2022-10-16T06:03:50;2.97;;;2.40;;
16179;SDS011;8196;49.428;10.906;2022-10-16T06:06:19;3.90;;;2.58;;
16179;SDS011;8196;49.428;10.906;2022-10-16T06:08:47;2.50;;;2.30;;
16179;SDS011;8196;49.428;10.906;2022-10-16T06:11:15;2.65;;;2.45;;
16179;SDS011;8196;49.428;10.906;2022-10-16T06:13:42;4.70;;;2.70;;
16179;SDS011;8196;49.428;10.906;2022-10-16T06:16:09;3.70;;;3.30;;
16179;SDS011;8196;49.428;10.906;2022-10-16T06:18:37;4.55;;;3.40;;
16179;SDS011;8196;49.428;10.906;2022-10-16T06:21:08;3.70;;;3.40;;
16179;SDS011;8196;49.428;10.906;2022-10-16T06:23:35;6.53;;;5.70;;
16179;SDS011;8196;49.428;10.906;2022-10-16T06:26:04;6.10;;;4.60;;
16179;SDS011;8196;49.428;10.906;2022-10-16T06:28:32;4.25;;;3.47;;
16179;SDS011;8196;49.428;10.906;2022-10-16T06:30:59;3.53;;;3.23;;
16179;SDS011;8196;49.428;10.906;2022-10-16T06:33:32;3.08;;;2.80;;
16179;SDS011;8196;49.428;10.906;2022-10-16T06:36:00;4.35;;;3.42;;
16179;SDS011;8196;49.428;10.906;2022-10-16T06:38:27;4.13;;;3.27;;
16179;SDS011;8196;49.428;10.906;2022-10-16T06:40:54;3.45;;;2.42;;
16179;SDS011;8196;49.428;10.906;2022-10-16T06:43:21;3.38;;;2.58;;
16179;SDS011;8196;49.428;10.906;2022-10-16T06:45:56;4.68;;;2.70;;
16179;SDS011;8196;49.428;10.906;2022-10-16T06:48:23;4.15;;;2.63;;
16179;SDS011;8196;49.428;10.906;2022-10-16T06:50:58;3.67;;;2.58;;
16179;SDS011;8196;49.428;10.906;2022-10-16T06:53:26;7.55;;;2.97;;
16179;SDS011;8196;49.428;10.906;2022-10-16T06:55:53;3.95;;;3.20;;
16179;SDS011;8196;49.428;10.906;2022-10-16T06:58:21;3.53;;;2.30;;
16179;SDS011;8196;49.428;10.906;2022-10-16T07:00:48;3.80;;;2.47;;
16179;SDS011;8196;49.428;10.906;2022-10-16T07:03:15;3.85;;;3.55;;
16179;SDS011;8196;49.428;10.906;2022-10-16T07:05:42;4.95;;;3.65;;
16179;SDS011;8196;49.428;10.906;2022-10-16T07:08:09;5.97;;;4.38;;
16179;SDS011;8196;49.428;10.906;2022-10-16T07:10:36;7.82;;;7.03;;
16179;SDS011;8196;49.428;10.906;2022-10-16T07:13:03;5.60;;;5.10;;
16179;SDS011;8196;49.428;10.906;2022-10-16T07:15:30;4.38;;;3.97;;
16179;SDS011;8196;49.428;10.906;2022-10-16T07:17:57;8.55;;;6.15;;
16179;SDS011;8196;49.428;10.906;2022-10-16T07:20:24;7.43;;;5.63;;
16179;SDS011;8196;49.428;10.906;2022-10-16T07:22:51;9.40;;;6.37;;
16179;SDS011;8196;49.428;10.906;2022-10-16T07:25:19;12.93;;;9.23;;
16179;SDS011;8196;49.428;10.906;2022-10-16T07:27:46;5.20;;;4.68;;
16179;SDS011;8196;49.428;10.906;2022-10-16T07:30:13;4.15;;;3.17;;
16179;SDS011;8196;49.428;10.906;2022-10-16T07:32:40;3.13;;;2.83;;
16179;SDS011;8196;49.428;10.906;2022-10-16T07:35:07;2.30;;;2.10;;
16179;SDS011;8196;49.428;10.906;2022-10-16T07:37:34;3.55;;;2.92;;
16179;SDS011;8196;49.428;10.906;2022-10-16T07:40:01;2.90;;;2.60;;
16179;SDS011;8196;49.428;10.906;2022-10-16T07:42:28;8.70;;;5.32;;
16179;SDS011;8196;49.428;10.906;2022-10-16T07:44:55;4.60;;;3.10;;
16179;SDS011;8196;49.428;10.906;2022-10-16T07:47:23;3.30;;;3.00;;
16179;SDS011;8196;49.428;10.906;2022-10-16T07:49:50;3.85;;;3.42;;
16179;SDS011;8196;49.428;10.906;2022-10-16T07:52:17;4.13;;;3.83;;
16179;SDS011;8196;49.428;10.906;2022-10-16T07:54:44;2.90;;;2.70;;
16179;SDS011;8196;49.428;10.906;2022-10-16T07:57:11;3.33;;;3.00;;
16179;SDS011;8196;49.428;10.906;2022-10-16T07:59:45;4.25;;;3.13;;
16179;SDS011;8196;49.428;10.906;2022-10-16T08:02:12;4.00;;;3.60;;
16179;SDS011;8196;49.428;10.906;2022-10-16T08:04:39;5.72;;;4.05;;
16179;SDS011;8196;49.428;10.906;2022-10-16T08:07:07;3.78;;;2.70;;
16179;SDS011;8196;49.428;10.906;2022-10-16T08:09:34;3.80;;;2.65;;
16179;SDS011;8196;49.428;10.906;2022-10-16T08:12:02;2.97;;;2.47;;
16179;SDS011;8196;49.428;10.906;2022-10-16T08:14:30;3.58;;;3.28;;
16179;SDS011;8196;49.428;10.906;2022-10-16T08:16:57;3.40;;;3.10;;
16179;SDS011;8196;49.428;10.906;2022-10-16T08:19:24;3.30;;;2.95;;
16179;SDS011;8196;49.428;10.906;2022-10-16T08:21:51;2.50;;;2.30;;
16179;SDS011;8196;49.428;10.906;2022-10-16T08:24:18;2.40;;;2.17;;
16179;SDS011;8196;49.428;10.906;2022-10-16T08:26:45;2.58;;;2.28;;
16179;SDS011;8196;49.428;10.906;2022-10-16T08:29:13;2.73;;;2.20;;
16179;SDS011;8196;49.428;10.906;2022-10-16T08:31:41;2.60;;;2.40;;
16179;SDS011;8196;49.428;10.906;2022-10-16T08:34:08;7.35;;;6.63;;
16179;SDS011;8196;49.428;10.906;2022-10-16T08:36:35;4.88;;;3.15;;
16179;SDS011;8196;49.428;10.906;2022-10-16T08:39:02;3.25;;;2.40;;
16179;SDS011;8196;49.428;10.906;2022-10-16T08:41:37;2.45;;;2.25;;
16179;SDS011;8196;49.428;10.906;2022-10-16T08:47:16;3.65;;;2.10;;
16179;SDS011;8196;49.428;10.906;2022-10-16T08:49:50;3.33;;;2.30;;
16179;SDS011;8196;49.428;10.906;2022-10-16T08:52:20;2.50;;;1.90;;
16179;SDS011;8196;49.428;10.906;2022-10-16T08:54:48;3.50;;;2.10;;
16179;SDS011;8196;49.428;10.906;2022-10-16T08:57:19;2.60;;;1.92;;
16179;SDS011;8196;49.428;10.906;2022-10-16T08:59:49;2.90;;;2.00;;
16179;SDS011;8196;49.428;10.906;2022-10-16T09:07:25;3.13;;;1.80;;
16179;SDS011;8196;49.428;10.906;2022-10-16T09:22:40;2.75;;;1.80;;
16179;SDS011;8196;49.428;10.906;2022-10-16T09:25:15;3.57;;;2.27;;
16179;SDS011;8196;49.428;10.906;2022-10-16T09:27:44;2.97;;;2.38;;
16179;SDS011;8196;49.428;10.906;2022-10-16T09:30:13;4.37;;;3.30;;
16179;SDS011;8196;49.428;10.906;2022-10-16T09:32:41;4.47;;;3.35;;
16179;SDS011;8196;49.428;10.906;2022-10-16T09:35:11;3.40;;;2.70;;
16179;SDS011;8196;49.428;10.906;2022-10-16T09:37:40;3.03;;;2.40;;
16179;SDS011;8196;49.428;10.906;2022-10-16T09:40:12;2.30;;;2.00;;
16179;SDS011;8196;49.428;10.906;2022-10-16T09:42:39;3.17;;;1.95;;
16179;SDS011;8196;49.428;10.906;2022-10-16T09:45:19;2.20;;;2.00;;
16179;SDS011;8196;49.428;10.906;2022-10-16T09:47:47;3.13;;;2.30;;
16179;SDS011;8196;49.428;10.906;2022-10-16T09:50:26;3.15;;;2.35;;
16179;SDS011;8196;49.428;10.906;2022-10-16T09:53:02;2.90;;;2.60;;
16179;SDS011;8196;49.428;10.906;2022-10-16T09:55:30;5.22;;;2.88;;
16179;SDS011;8196;49.428;10.906;2022-10-16T09:57:57;4.50;;;2.63;;
16179;SDS011;8196;49.428;10.906;2022-10-16T10:00:24;3.40;;;2.35;;
16179;SDS011;8196;49.428;10.906;2022-10-16T10:02:52;2.67;;;1.80;;
16179;SDS011;8196;49.428;10.906;2022-10-16T10:05:26;2.88;;;1.65;;
16179;SDS011;8196;49.428;10.906;2022-10-16T10:07:57;1.80;;;1.70;;
16179;SDS011;8196;49.428;10.906;2022-10-16T10:12:53;3.40;;;1.30;;
16179;SDS011;8196;49.428;10.906;2022-10-16T10:15:21;2.05;;;1.33;;
16179;SDS011;8196;49.428;10.906;2022-10-16T10:17:51;2.15;;;1.73;;
16179;SDS011;8196;49.428;10.906;2022-10-16T10:20:22;2.33;;;1.63;;
16179;SDS011;8196;49.428;10.906;2022-10-16T10:22:49;1.95;;;1.58;;
16179;SDS011;8196;49.428;10.906;2022-10-16T10:25:35;2.55;;;1.48;;
16179;SDS011;8196;49.428;10.906;2022-10-16T10:28:07;1.73;;;1.45;;
16179;SDS011;8196;49.428;10.906;2022-10-16T10:30:41;2.40;;;1.30;;
16179;SDS011;8196;49.428;10.906;2022-10-16T10:33:16;3.40;;;1.40;;
16179;SDS011;8196;49.428;10.906;2022-10-16T10:35:52;1.75;;;1.63;;
16179;SDS011;8196;49.428;10.906;2022-10-16T10:43:45;3.10;;;1.70;;
16179;SDS011;8196;49.428;10.906;2022-10-16T10:46:19;3.10;;;1.70;;
16179;SDS011;8196;49.428;10.906;2022-10-16T10:48:53;2.30;;;1.60;;
16179;SDS011;8196;49.428;10.906;2022-10-16T10:51:28;1.55;;;1.20;;
16179;SDS011;8196;49.428;10.906;2022-10-16T10:54:14;1.88;;;1.60;;
16179;SDS011;8196;49.428;10.906;2022-10-16T10:59:38;3.15;;;1.50;;
16179;SDS011;8196;49.428;10.906;2022-10-16T11:04:58;2.23;;;1.43;;
16179;SDS011;8196;49.428;10.906;2022-10-16T11:07:27;3.08;;;1.60;;
16179;SDS011;8196;49.428;10.906;2022-10-16T11:09:57;3.60;;;1.70;;
16179;SDS011;8196;49.428;10.906;2022-10-16T11:12:34;3.20;;;1.30;;
16179;SDS011;8196;49.428;10.906;2022-10-16T11:17:32;1.50;;;1.40;;
16179;SDS011;8196;49.428;10.906;2022-10-16T11:20:03;1.88;;;1.40;;
16179;SDS011;8196;49.428;10.906;2022-10-16T11:22:33;2.90;;;1.27;;
16179;SDS011;8196;49.428;10.906;2022-10-16T11:27:47;1.52;;;1.38;;
16179;SDS011;8196;49.428;10.906;2022-10-16T11:30:18;3.10;;;1.40;;
16179;SDS011;8196;49.428;10.906;2022-10-16T11:32:56;2.70;;;1.48;;
16179;SDS011;8196;49.428;10.906;2022-10-16T11:35:32;3.20;;;1.35;;
16179;SDS011;8196;49.428;10.906;2022-10-16T11:38:00;3.40;;;1.48;;
16179;SDS011;8196;49.428;10.906;2022-10-16T11:40:31;3.05;;;1.60;;
16179;SDS011;8196;49.428;10.906;2022-10-16T11:43:03;2.80;;;1.50;;
16179;SDS011;8196;49.428;10.906;2022-10-16T11:45:34;2.85;;;1.50;;
16179;SDS011;8196;49.428;10.906;2022-10-16T11:48:08;2.55;;;1.77;;
16179;SDS011;8196;49.428;10.906;2022-10-16T11:53:16;2.42;;;1.45;;
16179;SDS011;8196;49.428;10.906;2022-10-16T11:55:44;3.50;;;1.30;;
16179;SDS011;8196;49.428;10.906;2022-10-16T12:01:04;3.80;;;1.25;;
16179;SDS011;8196;49.428;10.906;2022-10-16T12:03:46;1.30;;;1.20;;
16179;SDS011;8196;49.428;10.906;2022-10-16T12:09:03;3.67;;;1.38;;
16179;SDS011;8196;49.428;10.906;2022-10-16T12:11:32;2.42;;;1.33;;
16179;SDS011;8196;49.428;10.906;2022-10-16T12:16:58;2.40;;;1.23;;
16179;SDS011;8196;49.428;10.906;2022-10-16T12:19:28;1.40;;;1.30;;
16179;SDS011;8196;49.428;10.906;2022-10-16T12:21:57;2.90;;;1.48;;
16179;SDS011;8196;49.428;10.906;2022-10-16T12:27:01;4.33;;;1.30;;
16179;SDS011;8196;49.428;10.906;2022-10-16T12:29:33;1.53;;;1.30;;
16179;SDS011;8196;49.428;10.906;2022-10-16T12:32:02;1.47;;;1.20;;
16179;SDS011;8196;49.428;10.906;2022-10-16T12:34:31;1.55;;;1.20;;
16179;SDS011;8196;49.428;10.906;2022-10-16T12:37:09;1.33;;;1.23;;
16179;SDS011;8196;49.428;10.906;2022-10-16T12:39:36;1.67;;;1.30;;
16179;SDS011;8196;49.428;10.906;2022-10-16T12:42:05;3.28;;;1.48;;
16179;SDS011;8196;49.428;10.906;2022-10-16T12:44:33;1.50;;;1.25;;
16179;SDS011;8196;49.428;10.906;2022-10-16T12:47:01;1.30;;;1.20;;
16179;SDS011;8196;49.428;10.906;2022-10-16T12:49:32;3.20;;;1.35;;
16179;SDS011;8196;49.428;10.906;2022-10-16T12:52:03;3.85;;;1.45;;
16179;SDS011;8196;49.428;10.906;2022-10-16T12:54:31;3.38;;;1.55;;
16179;SDS011;8196;49.428;10.906;2022-10-16T13:05:11;4.43;;;2.10;;
16179;SDS011;8196;49.428;10.906;2022-10-16T13:27:34;2.00;;;1.40;;
16179;SDS011;8196;49.428;10.906;2022-10-16T13:30:18;2.35;;;1.23;;
16179;SDS011;8196;49.428;10.906;2022-10-16T13:32:47;3.00;;;1.20;;
16179;SDS011;8196;49.428;10.906;2022-10-16T13:35:19;2.53;;;1.10;;
16179;SDS011;8196;49.428;10.906;2022-10-16T13:37:48;1.30;;;1.20;;
16179;SDS011;8196;49.428;10.906;2022-10-16T13:40:20;3.15;;;1.40;;
16179;SDS011;8196;49.428;10.906;2022-10-16T13:42:49;1.40;;;1.20;;
16179;SDS011;8196;49.428;10.906;2022-10-16T13:45:19;2.95;;;1.13;;
16179;SDS011;8196;49.428;10.906;2022-10-16T13:47:47;2.10;;;1.23;;
16179;SDS011;8196;49.428;10.906;2022-10-16T13:50:15;2.20;;;1.15;;
16179;SDS011;8196;49.428;10.906;2022-10-16T13:52:43;1.20;;;1.10;;
16179;SDS011;8196;49.428;10.906;2022-10-16T13:57:37;1.42;;;1.20;;
16179;SDS011;8196;49.428;10.906;2022-10-16T14:00:17;2.40;;;1.30;;
16179;SDS011;8196;49.428;10.906;2022-10-16T14:02:45;1.27;;;1.17;;
16179;SDS011;8196;49.428;10.906;2022-10-16T14:05:20;2.67;;;1.37;;
16179;SDS011;8196;49.428;10.906;2022-10-16T14:07:49;2.08;;;1.20;;
16179;SDS011;8196;49.428;10.906;2022-10-16T14:10:20;2.05;;;1.27;;
16179;SDS011;8196;49.428;10.906;2022-10-16T14:12:54;1.70;;;1.20;;
16179;SDS011;8196;49.428;10.906;2022-10-16T14:15:21;1.50;;;1.30;;
16179;SDS011;8196;49.428;10.906;2022-10-16T14:17:49;1.40;;;1.10;;
16179;SDS011;8196;49.428;10.906;2022-10-16T14:20:17;2.13;;;1.25;;
16179;SDS011;8196;49.428;10.906;2022-10-16T14:22:44;1.55;;;1.23;;
16179;SDS011;8196;49.428;10.906;2022-10-16T14:28:22;2.47;;;1.52;;
16179;SDS011;8196;49.428;10.906;2022-10-16T14:30:35;2.40;;;1.38;;
16179;SDS011;8196;49.428;10.906;2022-10-16T14:33:04;3.65;;;1.20;;
16179;SDS011;8196;49.428;10.906;2022-10-16T14:35:32;1.50;;;1.13;;
16179;SDS011;8196;49.428;10.906;2022-10-16T14:38:00;1.60;;;1.23;;
16179;SDS011;8196;49.428;10.906;2022-10-16T14:40:29;2.53;;;1.30;;
16179;SDS011;8196;49.428;10.906;2022-10-16T14:42:57;2.72;;;1.40;;
16179;SDS011;8196;49.428;10.906;2022-10-16T14:45:26;1.30;;;1.13;;
16179;SDS011;8196;49.428;10.906;2022-10-16T14:47:56;1.40;;;1.20;;
16179;SDS011;8196;49.428;10.906;2022-10-16T14:50:24;4.35;;;1.70;;
16179;SDS011;8196;49.428;10.906;2022-10-16T14:52:51;2.90;;;2.60;;
16179;SDS011;8196;49.428;10.906;2022-10-16T14:55:18;7.07;;;6.20;;
16179;SDS011;8196;49.428;10.906;2022-10-16T14:57:46;3.38;;;1.90;;
16179;SDS011;8196;49.428;10.906;2022-10-16T15:00:15;11.32;;;10.23;;
16179;SDS011;8196;49.428;10.906;2022-10-16T15:02:42;2.08;;;1.70;;
16179;SDS011;8196;49.428;10.906;2022-10-16T15:05:15;2.78;;;1.60;;
16179;SDS011;8196;49.428;10.906;2022-10-16T15:07:42;3.33;;;1.25;;
16179;SDS011;8196;49.428;10.906;2022-10-16T15:10:09;4.90;;;1.63;;
16179;SDS011;8196;49.428;10.906;2022-10-16T15:12:37;2.28;;;1.40;;
16179;SDS011;8196;49.428;10.906;2022-10-16T15:16:07;5.43;;;1.40;;
16179;SDS011;8196;49.428;10.906;2022-10-16T15:17:51;2.40;;;1.50;;
16179;SDS011;8196;49.428;10.906;2022-10-16T15:20:22;4.22;;;1.58;;
16179;SDS011;8196;49.428;10.906;2022-10-16T15:22:50;3.00;;;1.50;;
16179;SDS011;8196;49.428;10.906;2022-10-16T15:25:25;2.00;;;1.33;;
16179;SDS011;8196;49.428;10.906;2022-10-16T15:27:53;1.98;;;1.23;;
16179;SDS011;8196;49.428;10.906;2022-10-16T15:30:20;3.08;;;1.38;;
16179;SDS011;8196;49.428;10.906;2022-10-16T15:32:47;3.30;;;1.50;;
16179;SDS011;8196;49.428;10.906;2022-10-16T15:35:14;3.85;;;1.50;;
16179;SDS011;8196;49.428;10.906;2022-10-16T15:37:41;4.00;;;1.77;;
16179;SDS011;8196;49.428;10.906;2022-10-16T15:40:09;4.00;;;1.58;;
16179;SDS011;8196;49.428;10.906;2022-10-16T15:42:36;2.83;;;1.48;;
16179;SDS011;8196;49.428;10.906;2022-10-16T15:45:03;2.30;;;1.60;;
16179;SDS011;8196;49.428;10.906;2022-10-16T15:47:32;2.75;;;1.60;;
16179;SDS011;8196;49.428;10.906;2022-10-16T15:49:59;4.85;;;3.40;;
16179;SDS011;8196;49.428;10.906;2022-10-16T15:52:26;4.70;;;3.45;;
16179;SDS011;8196;49.428;10.906;2022-10-16T15:54:54;6.85;;;3.28;;
16179;SDS011;8196;49.428;10.906;2022-10-16T15:57:22;4.65;;;3.08;;
16179;SDS011;8196;49.428;10.906;2022-10-16T15:59:50;3.15;;;1.90;;
16179;SDS011;8196;49.428;10.906;2022-10-16T16:02:17;2.38;;;1.70;;
16179;SDS011;8196;49.428;10.906;2022-10-16T16:04:44;5.88;;;1.70;;
16179;SDS011;8196;49.428;10.906;2022-10-16T16:07:11;3.17;;;1.60;;
16179;SDS011;8196;49.428;10.906;2022-10-16T16:09:38;4.72;;;1.80;;
16179;SDS011;8196;49.428;10.906;2022-10-16T16:12:05;2.70;;;1.70;;
16179;SDS011;8196;49.428;10.906;2022-10-16T16:14:32;5.35;;;1.80;;
16179;SDS011;8196;49.428;10.906;2022-10-16T16:16:59;2.00;;;1.60;;
16179;SDS011;8196;49.428;10.906;2022-10-16T16:19:28;3.17;;;1.70;;
16179;SDS011;8196;49.428;10.906;2022-10-16T16:21:55;3.72;;;1.88;;
16179;SDS011;8196;49.428;10.906;2022-10-16T16:24:22;5.75;;;2.50;;
16179;SDS011;8196;49.428;10.906;2022-10-16T16:26:49;6.43;;;2.35;;
16179;SDS011;8196;49.428;10.906;2022-10-16T16:29:16;5.63;;;3.33;;
16179;SDS011;8196;49.428;10.906;2022-10-16T16:31:43;6.47;;;2.60;;
16179;SDS011;8196;49.428;10.906;2022-10-16T16:34:13;3.50;;;2.25;;
16179;SDS011;8196;49.428;10.906;2022-10-16T16:36:40;5.22;;;2.70;;